sensor_id;sensor_type;location;lat;lon;timestamp;P1;durP1;ratioP1;P2;durP2;ratioP2
67819;SDS011;54618;52.018;5.576;2023-06-22T00:02:12;12.25;;;5.47;;
67819;SDS011;54618;52.018;5.576;2023-06-22T00:04:38;8.45;;;5.03;;
67819;SDS011;54618;52.018;5.576;2023-06-22T00:07:03;9.70;;;4.80;;
67819;SDS011;54618;52.018;5.576;2023-06-22T00:09:29;9.02;;;5.32;;
67819;SDS011;54618;52.018;5.576;2023-06-22T00:11:56;6.85;;;4.70;;
67819;SDS011;54618;52.018;5.576;2023-06-22T00:14:21;8.57;;;5.35;;
67819;SDS011;54618;52.018;5.576;2023-06-22T00:16:47;8.93;;;5.53;;
67819;SDS011;54618;52.018;5.576;2023-06-22T00:19:13;10.07;;;5.38;;
67819;SDS011;54618;52.018;5.576;2023-06-22T00:21:40;7.70;;;5.18;;
67819;SDS011;54618;52.018;5.576;2023-06-22T00:24:11;9.98;;;4.90;;
67819;SDS011;54618;52.018;5.576;2023-06-22T00:26:37;9.90;;;5.03;;
67819;SDS011;54618;52.018;5.576;2023-06-22T00:29:03;8.13;;;5.13;;
67819;SDS011;54618;52.018;5.576;2023-06-22T00:31:28;8.50;;;5.82;;
67819;SDS011;54618;52.018;5.576;2023-06-22T00:33:54;10.18;;;5.13;;
67819;SDS011;54618;52.018;5.576;2023-06-22T00:36:19;8.63;;;5.93;;
67819;SDS011;54618;52.018;5.576;2023-06-22T00:38:45;8.30;;;5.18;;
67819;SDS011;54618;52.018;5.576;2023-06-22T00:41:14;9.93;;;5.38;;
67819;SDS011;54618;52.018;5.576;2023-06-22T00:43:39;8.25;;;5.20;;
67819;SDS011;54618;52.018;5.576;2023-06-22T00:46:07;9.25;;;5.50;;
67819;SDS011;54618;52.018;5.576;2023-06-22T00:48:32;9.15;;;5.53;;
67819;SDS011;54618;52.018;5.576;2023-06-22T00:50:58;8.50;;;5.38;;
67819;SDS011;54618;52.018;5.576;2023-06-22T00:53:24;8.27;;;5.40;;
67819;SDS011;54618;52.018;5.576;2023-06-22T00:55:50;9.55;;;6.57;;
67819;SDS011;54618;52.018;5.576;2023-06-22T00:58:18;7.63;;;5.10;;
67819;SDS011;54618;52.018;5.576;2023-06-22T01:00:46;8.90;;;5.88;;
67819;SDS011;54618;52.018;5.576;2023-06-22T01:03:13;9.68;;;5.78;;
67819;SDS011;54618;52.018;5.576;2023-06-22T01:05:39;9.73;;;5.80;;
67819;SDS011;54618;52.018;5.576;2023-06-22T01:16:57;9.23;;;6.22;;
67819;SDS011;54618;52.018;5.576;2023-06-22T01:22:21;8.50;;;6.30;;
67819;SDS011;54618;52.018;5.576;2023-06-22T01:25:09;10.05;;;7.47;;
67819;SDS011;54618;52.018;5.576;2023-06-22T01:30:21;11.35;;;6.65;;
67819;SDS011;54618;52.018;5.576;2023-06-22T01:32:50;10.23;;;7.88;;
67819;SDS011;54618;52.018;5.576;2023-06-22T01:35:17;11.50;;;7.72;;
67819;SDS011;54618;52.018;5.576;2023-06-22T01:37:44;10.18;;;7.43;;
67819;SDS011;54618;52.018;5.576;2023-06-22T01:40:13;11.60;;;7.82;;
67819;SDS011;54618;52.018;5.576;2023-06-22T01:42:43;12.80;;;8.15;;
67819;SDS011;54618;52.018;5.576;2023-06-22T01:45:10;10.85;;;7.22;;
67819;SDS011;54618;52.018;5.576;2023-06-22T01:47:37;11.20;;;7.10;;
67819;SDS011;54618;52.018;5.576;2023-06-22T01:50:04;12.05;;;7.57;;
67819;SDS011;54618;52.018;5.576;2023-06-22T01:52:30;12.25;;;7.45;;
67819;SDS011;54618;52.018;5.576;2023-06-22T01:54:58;13.93;;;7.80;;
67819;SDS011;54618;52.018;5.576;2023-06-22T01:57:24;12.05;;;7.25;;
67819;SDS011;54618;52.018;5.576;2023-06-22T02:02:30;11.63;;;7.65;;
67819;SDS011;54618;52.018;5.576;2023-06-22T02:05:03;13.25;;;8.40;;
67819;SDS011;54618;52.018;5.576;2023-06-22T02:07:36;12.25;;;8.73;;
67819;SDS011;54618;52.018;5.576;2023-06-22T02:10:07;11.93;;;7.65;;
67819;SDS011;54618;52.018;5.576;2023-06-22T02:12:33;11.88;;;7.97;;
67819;SDS011;54618;52.018;5.576;2023-06-22T02:15:00;10.43;;;7.38;;
67819;SDS011;54618;52.018;5.576;2023-06-22T02:17:26;10.68;;;7.55;;
67819;SDS011;54618;52.018;5.576;2023-06-22T02:19:52;13.18;;;7.88;;
67819;SDS011;54618;52.018;5.576;2023-06-22T02:22:18;11.13;;;7.43;;
67819;SDS011;54618;52.018;5.576;2023-06-22T02:24:44;13.10;;;7.10;;
67819;SDS011;54618;52.018;5.576;2023-06-22T02:27:09;11.07;;;7.57;;
67819;SDS011;54618;52.018;5.576;2023-06-22T02:29:38;10.60;;;6.97;;
67819;SDS011;54618;52.018;5.576;2023-06-22T02:32:03;14.25;;;7.88;;
67819;SDS011;54618;52.018;5.576;2023-06-22T02:34:29;11.35;;;7.55;;
67819;SDS011;54618;52.018;5.576;2023-06-22T02:36:54;12.38;;;7.22;;
67819;SDS011;54618;52.018;5.576;2023-06-22T02:39:20;11.55;;;7.40;;
67819;SDS011;54618;52.018;5.576;2023-06-22T02:41:47;12.15;;;7.70;;
67819;SDS011;54618;52.018;5.576;2023-06-22T02:44:13;9.35;;;6.55;;
67819;SDS011;54618;52.018;5.576;2023-06-22T02:46:39;11.30;;;7.15;;
67819;SDS011;54618;52.018;5.576;2023-06-22T02:49:08;11.70;;;7.90;;
67819;SDS011;54618;52.018;5.576;2023-06-22T02:51:34;13.35;;;7.38;;
67819;SDS011;54618;52.018;5.576;2023-06-22T02:54:00;10.35;;;7.03;;
67819;SDS011;54618;52.018;5.576;2023-06-22T02:56:28;11.80;;;7.15;;
67819;SDS011;54618;52.018;5.576;2023-06-22T02:58:55;12.60;;;8.43;;
67819;SDS011;54618;52.018;5.576;2023-06-22T03:01:25;21.52;;;8.38;;
67819;SDS011;54618;52.018;5.576;2023-06-22T03:03:52;12.02;;;7.32;;
67819;SDS011;54618;52.018;5.576;2023-06-22T03:06:18;15.73;;;8.27;;
67819;SDS011;54618;52.018;5.576;2023-06-22T03:08:48;11.50;;;7.93;;
67819;SDS011;54618;52.018;5.576;2023-06-22T03:11:16;12.95;;;8.65;;
67819;SDS011;54618;52.018;5.576;2023-06-22T03:13:41;11.93;;;7.97;;
67819;SDS011;54618;52.018;5.576;2023-06-22T03:16:07;15.68;;;8.32;;
67819;SDS011;54618;52.018;5.576;2023-06-22T03:18:33;13.60;;;7.68;;
67819;SDS011;54618;52.018;5.576;2023-06-22T03:20:58;13.45;;;7.85;;
67819;SDS011;54618;52.018;5.576;2023-06-22T03:23:25;13.30;;;8.60;;
67819;SDS011;54618;52.018;5.576;2023-06-22T03:25:50;14.40;;;8.85;;
67819;SDS011;54618;52.018;5.576;2023-06-22T03:28:16;13.32;;;8.95;;
67819;SDS011;54618;52.018;5.576;2023-06-22T03:30:42;12.57;;;8.38;;
67819;SDS011;54618;52.018;5.576;2023-06-22T03:33:08;15.90;;;8.52;;
67819;SDS011;54618;52.018;5.576;2023-06-22T03:35:33;16.67;;;8.25;;
67819;SDS011;54618;52.018;5.576;2023-06-22T03:37:59;12.88;;;8.05;;
67819;SDS011;54618;52.018;5.576;2023-06-22T03:40:24;15.23;;;9.05;;
67819;SDS011;54618;52.018;5.576;2023-06-22T03:42:50;13.48;;;8.35;;
67819;SDS011;54618;52.018;5.576;2023-06-22T03:45:15;12.40;;;8.02;;
67819;SDS011;54618;52.018;5.576;2023-06-22T03:47:44;14.88;;;8.75;;
67819;SDS011;54618;52.018;5.576;2023-06-22T03:50:09;14.32;;;9.50;;
67819;SDS011;54618;52.018;5.576;2023-06-22T03:52:39;21.27;;;9.55;;
67819;SDS011;54618;52.018;5.576;2023-06-22T03:55:07;14.20;;;8.52;;
67819;SDS011;54618;52.018;5.576;2023-06-22T03:57:33;12.82;;;9.05;;
67819;SDS011;54618;52.018;5.576;2023-06-22T03:59:59;17.38;;;9.32;;
67819;SDS011;54618;52.018;5.576;2023-06-22T04:02:25;17.17;;;9.27;;
67819;SDS011;54618;52.018;5.576;2023-06-22T04:04:51;16.77;;;9.75;;
67819;SDS011;54618;52.018;5.576;2023-06-22T04:07:16;14.20;;;8.85;;
67819;SDS011;54618;52.018;5.576;2023-06-22T04:09:43;23.85;;;9.18;;
67819;SDS011;54618;52.018;5.576;2023-06-22T04:12:08;19.98;;;9.70;;
67819;SDS011;54618;52.018;5.576;2023-06-22T04:14:34;16.30;;;9.63;;
67819;SDS011;54618;52.018;5.576;2023-06-22T04:16:59;14.38;;;9.18;;
67819;SDS011;54618;52.018;5.576;2023-06-22T04:19:26;14.23;;;9.25;;
67819;SDS011;54618;52.018;5.576;2023-06-22T04:21:51;17.73;;;9.65;;
67819;SDS011;54618;52.018;5.576;2023-06-22T04:24:17;14.93;;;10.30;;
67819;SDS011;54618;52.018;5.576;2023-06-22T04:26:42;17.05;;;9.13;;
67819;SDS011;54618;52.018;5.576;2023-06-22T04:29:10;16.60;;;10.02;;
67819;SDS011;54618;52.018;5.576;2023-06-22T04:31:37;16.52;;;10.07;;
67819;SDS011;54618;52.018;5.576;2023-06-22T04:34:06;17.63;;;10.48;;
67819;SDS011;54618;52.018;5.576;2023-06-22T04:36:33;14.25;;;9.52;;
67819;SDS011;54618;52.018;5.576;2023-06-22T04:39:10;14.88;;;9.60;;
67819;SDS011;54618;52.018;5.576;2023-06-22T04:41:37;15.18;;;9.80;;
67819;SDS011;54618;52.018;5.576;2023-06-22T04:44:17;18.02;;;9.93;;
67819;SDS011;54618;52.018;5.576;2023-06-22T04:46:53;15.77;;;9.30;;
67819;SDS011;54618;52.018;5.576;2023-06-22T04:49:20;24.50;;;11.43;;
67819;SDS011;54618;52.018;5.576;2023-06-22T04:51:46;18.65;;;11.07;;
67819;SDS011;54618;52.018;5.576;2023-06-22T04:54:12;19.05;;;10.85;;
67819;SDS011;54618;52.018;5.576;2023-06-22T04:56:38;22.13;;;11.10;;
67819;SDS011;54618;52.018;5.576;2023-06-22T04:59:05;23.23;;;12.43;;
67819;SDS011;54618;52.018;5.576;2023-06-22T05:01:32;27.88;;;12.18;;
67819;SDS011;54618;52.018;5.576;2023-06-22T05:03:59;19.35;;;12.80;;
67819;SDS011;54618;52.018;5.576;2023-06-22T05:06:26;19.88;;;13.18;;
67819;SDS011;54618;52.018;5.576;2023-06-22T05:08:56;18.05;;;11.52;;
67819;SDS011;54618;52.018;5.576;2023-06-22T05:11:28;21.80;;;12.90;;
67819;SDS011;54618;52.018;5.576;2023-06-22T05:13:54;21.20;;;13.95;;
67819;SDS011;54618;52.018;5.576;2023-06-22T05:16:20;28.92;;;13.55;;
67819;SDS011;54618;52.018;5.576;2023-06-22T05:18:52;24.50;;;13.88;;
67819;SDS011;54618;52.018;5.576;2023-06-22T05:21:23;24.13;;;13.60;;
67819;SDS011;54618;52.018;5.576;2023-06-22T05:23:50;19.58;;;13.50;;
67819;SDS011;54618;52.018;5.576;2023-06-22T05:26:16;24.15;;;14.23;;
67819;SDS011;54618;52.018;5.576;2023-06-22T05:28:43;23.00;;;14.43;;
67819;SDS011;54618;52.018;5.576;2023-06-22T05:31:14;27.80;;;15.43;;
67819;SDS011;54618;52.018;5.576;2023-06-22T05:33:41;24.77;;;15.18;;
67819;SDS011;54618;52.018;5.576;2023-06-22T05:36:07;29.15;;;14.68;;
67819;SDS011;54618;52.018;5.576;2023-06-22T05:38:34;25.90;;;15.23;;
67819;SDS011;54618;52.018;5.576;2023-06-22T05:40:59;21.60;;;13.68;;
67819;SDS011;54618;52.018;5.576;2023-06-22T05:43:25;28.70;;;15.13;;
67819;SDS011;54618;52.018;5.576;2023-06-22T05:45:50;22.33;;;15.15;;
67819;SDS011;54618;52.018;5.576;2023-06-22T05:48:16;29.45;;;15.43;;
67819;SDS011;54618;52.018;5.576;2023-06-22T05:50:42;27.08;;;17.00;;
67819;SDS011;54618;52.018;5.576;2023-06-22T05:53:07;25.17;;;15.35;;
67819;SDS011;54618;52.018;5.576;2023-06-22T05:55:33;21.38;;;14.20;;
67819;SDS011;54618;52.018;5.576;2023-06-22T05:57:58;28.95;;;17.08;;
67819;SDS011;54618;52.018;5.576;2023-06-22T06:00:24;28.75;;;17.83;;
67819;SDS011;54618;52.018;5.576;2023-06-22T06:02:49;25.38;;;16.73;;
67819;SDS011;54618;52.018;5.576;2023-06-22T06:05:15;25.25;;;16.70;;
67819;SDS011;54618;52.018;5.576;2023-06-22T06:07:44;25.63;;;16.15;;
67819;SDS011;54618;52.018;5.576;2023-06-22T06:10:14;30.42;;;17.40;;
67819;SDS011;54618;52.018;5.576;2023-06-22T06:12:39;37.85;;;16.27;;
67819;SDS011;54618;52.018;5.576;2023-06-22T06:15:05;28.00;;;15.95;;
67819;SDS011;54618;52.018;5.576;2023-06-22T06:17:30;26.35;;;15.93;;
67819;SDS011;54618;52.018;5.576;2023-06-22T06:19:56;28.20;;;16.77;;
67819;SDS011;54618;52.018;5.576;2023-06-22T06:22:23;23.83;;;16.33;;
67819;SDS011;54618;52.018;5.576;2023-06-22T06:24:49;24.95;;;15.18;;
67819;SDS011;54618;52.018;5.576;2023-06-22T06:27:15;24.50;;;15.15;;
67819;SDS011;54618;52.018;5.576;2023-06-22T06:29:43;35.78;;;17.10;;
67819;SDS011;54618;52.018;5.576;2023-06-22T06:32:10;24.67;;;16.05;;
67819;SDS011;54618;52.018;5.576;2023-06-22T06:34:40;25.85;;;14.15;;
67819;SDS011;54618;52.018;5.576;2023-06-22T06:37:05;32.58;;;15.52;;
67819;SDS011;54618;52.018;5.576;2023-06-22T06:39:31;22.52;;;15.40;;
67819;SDS011;54618;52.018;5.576;2023-06-22T06:41:56;21.92;;;14.70;;
67819;SDS011;54618;52.018;5.576;2023-06-22T06:44:22;20.48;;;14.00;;
67819;SDS011;54618;52.018;5.576;2023-06-22T06:46:47;21.90;;;14.48;;
67819;SDS011;54618;52.018;5.576;2023-06-22T06:49:13;23.13;;;15.38;;
67819;SDS011;54618;52.018;5.576;2023-06-22T06:51:38;21.73;;;13.57;;
67819;SDS011;54618;52.018;5.576;2023-06-22T06:54:04;79.55;;;13.85;;
67819;SDS011;54618;52.018;5.576;2023-06-22T06:56:29;16.77;;;10.93;;
67819;SDS011;54618;52.018;5.576;2023-06-22T06:58:55;38.80;;;11.90;;
67819;SDS011;54618;52.018;5.576;2023-06-22T07:01:21;15.57;;;10.30;;
67819;SDS011;54618;52.018;5.576;2023-06-22T07:03:46;18.08;;;10.45;;
67819;SDS011;54618;52.018;5.576;2023-06-22T07:06:13;29.50;;;10.32;;
67819;SDS011;54618;52.018;5.576;2023-06-22T07:08:38;17.17;;;9.48;;
67819;SDS011;54618;52.018;5.576;2023-06-22T07:11:04;14.68;;;10.18;;
67819;SDS011;54618;52.018;5.576;2023-06-22T07:13:30;15.63;;;9.43;;
67819;SDS011;54618;52.018;5.576;2023-06-22T07:15:56;14.80;;;9.43;;
67819;SDS011;54618;52.018;5.576;2023-06-22T07:18:21;30.27;;;9.48;;
67819;SDS011;54618;52.018;5.576;2023-06-22T07:20:47;16.15;;;8.32;;
67819;SDS011;54618;52.018;5.576;2023-06-22T07:23:12;14.38;;;7.57;;
67819;SDS011;54618;52.018;5.576;2023-06-22T07:25:38;14.18;;;7.50;;
67819;SDS011;54618;52.018;5.576;2023-06-22T07:28:04;12.70;;;6.93;;
67819;SDS011;54618;52.018;5.576;2023-06-22T07:30:31;10.60;;;6.47;;
67819;SDS011;54618;52.018;5.576;2023-06-22T07:32:58;13.43;;;6.40;;
67819;SDS011;54618;52.018;5.576;2023-06-22T07:35:28;13.57;;;6.43;;
67819;SDS011;54618;52.018;5.576;2023-06-22T07:37:54;14.43;;;6.25;;
67819;SDS011;54618;52.018;5.576;2023-06-22T07:40:19;10.70;;;5.90;;
67819;SDS011;54618;52.018;5.576;2023-06-22T07:42:45;9.57;;;5.75;;
67819;SDS011;54618;52.018;5.576;2023-06-22T07:45:13;9.20;;;5.65;;
67819;SDS011;54618;52.018;5.576;2023-06-22T07:47:38;10.07;;;5.20;;
67819;SDS011;54618;52.018;5.576;2023-06-22T07:50:04;8.45;;;5.13;;
67819;SDS011;54618;52.018;5.576;2023-06-22T07:52:30;8.80;;;4.68;;
67819;SDS011;54618;52.018;5.576;2023-06-22T07:54:57;7.43;;;4.75;;
67819;SDS011;54618;52.018;5.576;2023-06-22T07:57:23;8.90;;;4.95;;
67819;SDS011;54618;52.018;5.576;2023-06-22T07:59:57;9.52;;;5.05;;
67819;SDS011;54618;52.018;5.576;2023-06-22T08:02:23;7.55;;;4.55;;
67819;SDS011;54618;52.018;5.576;2023-06-22T08:04:49;8.77;;;5.28;;
67819;SDS011;54618;52.018;5.576;2023-06-22T08:07:14;43.72;;;6.97;;
67819;SDS011;54618;52.018;5.576;2023-06-22T08:09:42;11.13;;;4.65;;
67819;SDS011;54618;52.018;5.576;2023-06-22T08:12:13;22.83;;;6.13;;
67819;SDS011;54618;52.018;5.576;2023-06-22T08:14:38;16.23;;;5.13;;
67819;SDS011;54618;52.018;5.576;2023-06-22T08:17:04;10.38;;;5.53;;
67819;SDS011;54618;52.018;5.576;2023-06-22T08:19:30;15.75;;;5.82;;
67819;SDS011;54618;52.018;5.576;2023-06-22T08:21:56;7.78;;;4.25;;
67819;SDS011;54618;52.018;5.576;2023-06-22T08:24:22;10.52;;;5.10;;
67819;SDS011;54618;52.018;5.576;2023-06-22T08:26:49;11.48;;;5.40;;
67819;SDS011;54618;52.018;5.576;2023-06-22T08:29:16;9.45;;;5.25;;
67819;SDS011;54618;52.018;5.576;2023-06-22T08:31:42;49.58;;;8.05;;
67819;SDS011;54618;52.018;5.576;2023-06-22T08:34:08;27.65;;;6.25;;
67819;SDS011;54618;52.018;5.576;2023-06-22T08:36:33;66.07;;;8.02;;
67819;SDS011;54618;52.018;5.576;2023-06-22T08:39:06;9.95;;;5.15;;
67819;SDS011;54618;52.018;5.576;2023-06-22T08:41:32;7.85;;;4.85;;
67819;SDS011;54618;52.018;5.576;2023-06-22T08:43:57;16.70;;;5.45;;
67819;SDS011;54618;52.018;5.576;2023-06-22T08:46:23;10.85;;;5.13;;
67819;SDS011;54618;52.018;5.576;2023-06-22T08:48:55;15.63;;;5.50;;
67819;SDS011;54618;52.018;5.576;2023-06-22T08:51:24;12.43;;;5.22;;
67819;SDS011;54618;52.018;5.576;2023-06-22T08:53:49;23.75;;;5.18;;
67819;SDS011;54618;52.018;5.576;2023-06-22T08:56:15;11.70;;;4.85;;
67819;SDS011;54618;52.018;5.576;2023-06-22T08:58:40;13.73;;;4.68;;
67819;SDS011;54618;52.018;5.576;2023-06-22T09:01:09;10.85;;;5.03;;
67819;SDS011;54618;52.018;5.576;2023-06-22T09:03:34;38.22;;;6.68;;
67819;SDS011;54618;52.018;5.576;2023-06-22T09:06:01;9.43;;;4.80;;
67819;SDS011;54618;52.018;5.576;2023-06-22T09:08:27;7.57;;;4.95;;
67819;SDS011;54618;52.018;5.576;2023-06-22T09:10:52;60.55;;;6.40;;
67819;SDS011;54618;52.018;5.576;2023-06-22T09:13:18;16.48;;;5.63;;
67819;SDS011;54618;52.018;5.576;2023-06-22T09:15:44;10.57;;;5.00;;
67819;SDS011;54618;52.018;5.576;2023-06-22T09:18:10;19.00;;;5.80;;
67819;SDS011;54618;52.018;5.576;2023-06-22T09:20:36;39.72;;;6.47;;
67819;SDS011;54618;52.018;5.576;2023-06-22T09:23:01;16.15;;;5.40;;
67819;SDS011;54618;52.018;5.576;2023-06-22T09:25:27;11.75;;;4.43;;
67819;SDS011;54618;52.018;5.576;2023-06-22T09:27:52;10.25;;;4.40;;
67819;SDS011;54618;52.018;5.576;2023-06-22T09:30:18;13.98;;;4.03;;
67819;SDS011;54618;52.018;5.576;2023-06-22T09:32:44;17.55;;;4.47;;
67819;SDS011;54618;52.018;5.576;2023-06-22T09:35:09;20.80;;;4.03;;
67819;SDS011;54618;52.018;5.576;2023-06-22T09:37:37;10.32;;;4.03;;
67819;SDS011;54618;52.018;5.576;2023-06-22T09:40:03;9.52;;;3.75;;
67819;SDS011;54618;52.018;5.576;2023-06-22T09:42:36;8.98;;;3.60;;
67819;SDS011;54618;52.018;5.576;2023-06-22T09:45:01;5.72;;;3.65;;
67819;SDS011;54618;52.018;5.576;2023-06-22T09:47:27;9.50;;;4.03;;
67819;SDS011;54618;52.018;5.576;2023-06-22T09:49:54;87.28;;;7.47;;
67819;SDS011;54618;52.018;5.576;2023-06-22T09:52:20;10.88;;;4.40;;
67819;SDS011;54618;52.018;5.576;2023-06-22T09:54:46;7.13;;;3.67;;
67819;SDS011;54618;52.018;5.576;2023-06-22T09:57:15;7.00;;;3.50;;
67819;SDS011;54618;52.018;5.576;2023-06-22T09:59:41;8.32;;;3.45;;
67819;SDS011;54618;52.018;5.576;2023-06-22T10:02:10;8.50;;;3.60;;
67819;SDS011;54618;52.018;5.576;2023-06-22T10:04:36;8.60;;;3.78;;
67819;SDS011;54618;52.018;5.576;2023-06-22T10:07:01;13.65;;;4.05;;
67819;SDS011;54618;52.018;5.576;2023-06-22T10:09:27;5.50;;;3.60;;
67819;SDS011;54618;52.018;5.576;2023-06-22T10:11:53;6.25;;;3.95;;
67819;SDS011;54618;52.018;5.576;2023-06-22T10:14:18;9.90;;;4.07;;
67819;SDS011;54618;52.018;5.576;2023-06-22T10:16:44;9.38;;;3.88;;
67819;SDS011;54618;52.018;5.576;2023-06-22T10:19:09;8.55;;;4.03;;
67819;SDS011;54618;52.018;5.576;2023-06-22T10:21:35;8.52;;;3.70;;
67819;SDS011;54618;52.018;5.576;2023-06-22T10:24:00;46.17;;;5.85;;
67819;SDS011;54618;52.018;5.576;2023-06-22T10:26:34;11.95;;;3.50;;
67819;SDS011;54618;52.018;5.576;2023-06-22T10:29:01;20.90;;;4.03;;
67819;SDS011;54618;52.018;5.576;2023-06-22T10:31:27;83.72;;;7.05;;
67819;SDS011;54618;52.018;5.576;2023-06-22T10:33:53;13.07;;;3.80;;
67819;SDS011;54618;52.018;5.576;2023-06-22T10:36:19;13.38;;;4.20;;
67819;SDS011;54618;52.018;5.576;2023-06-22T10:38:45;8.10;;;3.70;;
67819;SDS011;54618;52.018;5.576;2023-06-22T10:41:12;7.22;;;3.92;;
67819;SDS011;54618;52.018;5.576;2023-06-22T10:43:38;5.93;;;3.33;;
67819;SDS011;54618;52.018;5.576;2023-06-22T10:46:04;11.93;;;3.92;;
67819;SDS011;54618;52.018;5.576;2023-06-22T10:48:29;6.32;;;3.55;;
67819;SDS011;54618;52.018;5.576;2023-06-22T10:50:55;10.60;;;3.80;;
67819;SDS011;54618;52.018;5.576;2023-06-22T10:53:21;24.55;;;4.80;;
67819;SDS011;54618;52.018;5.576;2023-06-22T10:55:46;5.90;;;3.20;;
67819;SDS011;54618;52.018;5.576;2023-06-22T10:58:12;7.28;;;3.78;;
67819;SDS011;54618;52.018;5.576;2023-06-22T11:00:38;14.75;;;4.40;;
67819;SDS011;54618;52.018;5.576;2023-06-22T11:03:04;6.10;;;4.15;;
67819;SDS011;54618;52.018;5.576;2023-06-22T11:05:29;31.50;;;4.90;;
67819;SDS011;54618;52.018;5.576;2023-06-22T11:07:55;8.40;;;3.90;;
67819;SDS011;54618;52.018;5.576;2023-06-22T11:10:20;7.55;;;3.90;;
67819;SDS011;54618;52.018;5.576;2023-06-22T11:12:46;8.40;;;4.53;;
67819;SDS011;54618;52.018;5.576;2023-06-22T11:15:14;8.32;;;4.40;;
67819;SDS011;54618;52.018;5.576;2023-06-22T11:17:40;8.63;;;4.45;;
67819;SDS011;54618;52.018;5.576;2023-06-22T11:20:06;7.90;;;4.70;;
67819;SDS011;54618;52.018;5.576;2023-06-22T11:22:36;6.88;;;4.40;;
67819;SDS011;54618;52.018;5.576;2023-06-22T11:25:05;7.43;;;4.60;;
67819;SDS011;54618;52.018;5.576;2023-06-22T11:27:31;8.68;;;4.63;;
67819;SDS011;54618;52.018;5.576;2023-06-22T11:29:56;11.70;;;5.30;;
67819;SDS011;54618;52.018;5.576;2023-06-22T11:32:22;13.50;;;5.43;;
67819;SDS011;54618;52.018;5.576;2023-06-22T11:34:48;8.93;;;5.40;;
67819;SDS011;54618;52.018;5.576;2023-06-22T11:37:13;9.77;;;5.78;;
67819;SDS011;54618;52.018;5.576;2023-06-22T11:39:40;9.73;;;5.55;;
67819;SDS011;54618;52.018;5.576;2023-06-22T11:42:06;14.48;;;5.80;;
67819;SDS011;54618;52.018;5.576;2023-06-22T11:44:31;22.77;;;6.30;;
67819;SDS011;54618;52.018;5.576;2023-06-22T11:46:57;10.60;;;6.70;;
67819;SDS011;54618;52.018;5.576;2023-06-22T11:49:22;9.57;;;5.50;;
67819;SDS011;54618;52.018;5.576;2023-06-22T11:51:48;77.72;;;9.38;;
67819;SDS011;54618;52.018;5.576;2023-06-22T11:54:13;11.48;;;6.10;;
67819;SDS011;54618;52.018;5.576;2023-06-22T11:56:39;15.98;;;7.45;;
67819;SDS011;54618;52.018;5.576;2023-06-22T11:59:04;11.18;;;7.85;;
67819;SDS011;54618;52.018;5.576;2023-06-22T12:01:30;32.55;;;8.43;;
67819;SDS011;54618;52.018;5.576;2023-06-22T12:03:58;11.35;;;7.88;;
67819;SDS011;54618;52.018;5.576;2023-06-22T12:06:23;22.77;;;7.82;;
67819;SDS011;54618;52.018;5.576;2023-06-22T12:08:49;15.02;;;7.90;;
67819;SDS011;54618;52.018;5.576;2023-06-22T12:11:14;20.13;;;7.60;;
67819;SDS011;54618;52.018;5.576;2023-06-22T12:13:40;15.35;;;7.97;;
67819;SDS011;54618;52.018;5.576;2023-06-22T12:16:05;9.50;;;7.78;;
67819;SDS011;54618;52.018;5.576;2023-06-22T12:18:32;12.02;;;7.30;;
67819;SDS011;54618;52.018;5.576;2023-06-22T12:20:57;11.60;;;7.18;;
67819;SDS011;54618;52.018;5.576;2023-06-22T12:23:23;11.25;;;7.72;;
67819;SDS011;54618;52.018;5.576;2023-06-22T12:25:48;12.07;;;7.32;;
67819;SDS011;54618;52.018;5.576;2023-06-22T12:28:14;12.23;;;7.65;;
67819;SDS011;54618;52.018;5.576;2023-06-22T12:30:39;11.75;;;7.47;;
67819;SDS011;54618;52.018;5.576;2023-06-22T12:33:05;13.25;;;7.70;;
67819;SDS011;54618;52.018;5.576;2023-06-22T12:35:30;12.20;;;7.95;;
67819;SDS011;54618;52.018;5.576;2023-06-22T12:37:56;11.07;;;7.88;;
67819;SDS011;54618;52.018;5.576;2023-06-22T12:40:22;14.30;;;8.95;;
67819;SDS011;54618;52.018;5.576;2023-06-22T12:42:47;10.45;;;8.05;;
67819;SDS011;54618;52.018;5.576;2023-06-22T12:45:13;14.77;;;8.40;;
67819;SDS011;54618;52.018;5.576;2023-06-22T12:47:38;12.57;;;8.15;;
67819;SDS011;54618;52.018;5.576;2023-06-22T12:50:04;14.68;;;7.93;;
67819;SDS011;54618;52.018;5.576;2023-06-22T12:52:30;13.10;;;7.70;;
67819;SDS011;54618;52.018;5.576;2023-06-22T12:54:59;12.60;;;7.82;;
67819;SDS011;54618;52.018;5.576;2023-06-22T12:57:24;11.95;;;8.50;;
67819;SDS011;54618;52.018;5.576;2023-06-22T12:59:50;14.82;;;8.93;;
67819;SDS011;54618;52.018;5.576;2023-06-22T13:02:16;12.13;;;8.68;;
67819;SDS011;54618;52.018;5.576;2023-06-22T13:04:44;12.20;;;8.25;;
67819;SDS011;54618;52.018;5.576;2023-06-22T13:07:09;11.48;;;7.57;;
67819;SDS011;54618;52.018;5.576;2023-06-22T13:09:36;15.13;;;8.60;;
67819;SDS011;54618;52.018;5.576;2023-06-22T13:12:01;13.90;;;9.20;;
67819;SDS011;54618;52.018;5.576;2023-06-22T13:14:27;14.90;;;8.38;;
67819;SDS011;54618;52.018;5.576;2023-06-22T13:16:53;12.73;;;8.45;;
67819;SDS011;54618;52.018;5.576;2023-06-22T13:19:18;13.07;;;8.85;;
67819;SDS011;54618;52.018;5.576;2023-06-22T13:21:44;14.68;;;10.63;;
67819;SDS011;54618;52.018;5.576;2023-06-22T13:24:09;13.98;;;10.10;;
67819;SDS011;54618;52.018;5.576;2023-06-22T13:26:35;14.50;;;10.48;;
67819;SDS011;54618;52.018;5.576;2023-06-22T13:29:00;16.05;;;10.90;;
67819;SDS011;54618;52.018;5.576;2023-06-22T13:31:26;15.27;;;10.98;;
67819;SDS011;54618;52.018;5.576;2023-06-22T13:33:51;14.05;;;11.15;;
67819;SDS011;54618;52.018;5.576;2023-06-22T13:36:17;16.50;;;10.57;;
67819;SDS011;54618;52.018;5.576;2023-06-22T13:38:43;13.20;;;10.38;;
67819;SDS011;54618;52.018;5.576;2023-06-22T13:41:09;14.10;;;9.68;;
67819;SDS011;54618;52.018;5.576;2023-06-22T13:43:35;13.60;;;9.25;;
67819;SDS011;54618;52.018;5.576;2023-06-22T13:46:00;17.63;;;10.65;;
67819;SDS011;54618;52.018;5.576;2023-06-22T13:48:26;13.30;;;10.27;;
67819;SDS011;54618;52.018;5.576;2023-06-22T13:50:53;16.52;;;10.80;;
67819;SDS011;54618;52.018;5.576;2023-06-22T13:53:19;15.77;;;11.13;;
67819;SDS011;54618;52.018;5.576;2023-06-22T13:55:44;15.95;;;11.20;;
67819;SDS011;54618;52.018;5.576;2023-06-22T13:58:10;18.88;;;12.00;;
67819;SDS011;54618;52.018;5.576;2023-06-22T14:00:35;15.82;;;11.68;;
67819;SDS011;54618;52.018;5.576;2023-06-22T14:03:01;17.08;;;11.98;;
67819;SDS011;54618;52.018;5.576;2023-06-22T14:05:26;14.63;;;10.48;;
67819;SDS011;54618;52.018;5.576;2023-06-22T14:07:52;15.00;;;11.18;;
67819;SDS011;54618;52.018;5.576;2023-06-22T14:10:17;16.83;;;10.63;;
67819;SDS011;54618;52.018;5.576;2023-06-22T14:12:43;18.83;;;12.00;;
67819;SDS011;54618;52.018;5.576;2023-06-22T14:15:09;18.15;;;12.82;;
67819;SDS011;54618;52.018;5.576;2023-06-22T14:17:35;12.18;;;9.80;;
67819;SDS011;54618;52.018;5.576;2023-06-22T14:20:00;17.48;;;12.25;;
67819;SDS011;54618;52.018;5.576;2023-06-22T14:22:26;18.25;;;11.60;;
67819;SDS011;54618;52.018;5.576;2023-06-22T14:24:54;17.27;;;12.68;;
67819;SDS011;54618;52.018;5.576;2023-06-22T14:27:21;16.95;;;11.40;;
67819;SDS011;54618;52.018;5.576;2023-06-22T14:29:46;17.60;;;11.85;;
67819;SDS011;54618;52.018;5.576;2023-06-22T14:32:15;17.13;;;13.23;;
67819;SDS011;54618;52.018;5.576;2023-06-22T14:34:40;16.33;;;11.55;;
67819;SDS011;54618;52.018;5.576;2023-06-22T14:37:06;16.13;;;12.57;;
67819;SDS011;54618;52.018;5.576;2023-06-22T14:39:32;17.15;;;13.10;;
67819;SDS011;54618;52.018;5.576;2023-06-22T14:41:58;21.30;;;13.55;;
67819;SDS011;54618;52.018;5.576;2023-06-22T14:44:25;18.02;;;13.00;;
67819;SDS011;54618;52.018;5.576;2023-06-22T14:46:51;19.08;;;13.88;;